sensor_id;sensor_type;location;lat;lon;timestamp;temperature;humidity
23395;DHT22;11870;53.084;18.206;2022-11-15T00:01:57;7.20;99.90
23395;DHT22;11870;53.084;18.206;2022-11-15T00:04:23;7.20;99.90
23395;DHT22;11870;53.084;18.206;2022-11-15T00:06:49;8.90;99.90
23395;DHT22;11870;53.084;18.206;2022-11-15T00:09:15;7.20;99.90
23395;DHT22;11870;53.084;18.206;2022-11-15T00:11:41;7.20;99.90
23395;DHT22;11870;53.084;18.206;2022-11-15T00:14:07;7.20;99.90
23395;DHT22;11870;53.084;18.206;2022-11-15T00:16:32;7.20;99.90
23395;DHT22;11870;53.084;18.206;2022-11-15T00:18:58;7.10;99.90
23395;DHT22;11870;53.084;18.206;2022-11-15T00:21:24;7.10;99.90
23395;DHT22;11870;53.084;18.206;2022-11-15T00:23:50;7.10;99.90
23395;DHT22;11870;53.084;18.206;2022-11-15T00:26:16;7.10;99.90
23395;DHT22;11870;53.084;18.206;2022-11-15T00:28:42;7.10;99.90
23395;DHT22;11870;53.084;18.206;2022-11-15T00:31:11;7.10;99.90
23395;DHT22;11870;53.084;18.206;2022-11-15T00:33:37;7.10;99.90
23395;DHT22;11870;53.084;18.206;2022-11-15T00:36:08;7.10;99.90
23395;DHT22;11870;53.084;18.206;2022-11-15T00:38:39;7.10;99.90
23395;DHT22;11870;53.084;18.206;2022-11-15T00:41:06;7.10;99.90
23395;DHT22;11870;53.084;18.206;2022-11-15T00:43:33;7.00;99.90
23395;DHT22;11870;53.084;18.206;2022-11-15T00:45:59;6.90;99.90
23395;DHT22;11870;53.084;18.206;2022-11-15T00:48:25;7.00;99.90
23395;DHT22;11870;53.084;18.206;2022-11-15T00:50:51;6.90;99.90
23395;DHT22;11870;53.084;18.206;2022-11-15T00:53:17;7.00;99.90
23395;DHT22;11870;53.084;18.206;2022-11-15T00:55:43;7.10;99.90
23395;DHT22;11870;53.084;18.206;2022-11-15T00:58:09;7.00;99.90
23395;DHT22;11870;53.084;18.206;2022-11-15T01:00:35;7.10;99.90
23395;DHT22;11870;53.084;18.206;2022-11-15T01:03:01;7.00;99.90
23395;DHT22;11870;53.084;18.206;2022-11-15T01:05:28;7.00;99.90
23395;DHT22;11870;53.084;18.206;2022-11-15T01:07:55;6.90;99.90
23395;DHT22;11870;53.084;18.206;2022-11-15T01:10:22;6.90;99.90
23395;DHT22;11870;53.084;18.206;2022-11-15T01:12:49;6.90;99.90
23395;DHT22;11870;53.084;18.206;2022-11-15T01:15:15;6.80;99.90
23395;DHT22;11870;53.084;18.206;2022-11-15T01:17:41;6.80;99.90
23395;DHT22;11870;53.084;18.206;2022-11-15T01:20:07;6.80;99.90
23395;DHT22;11870;53.084;18.206;2022-11-15T01:22:34;6.80;99.90
23395;DHT22;11870;53.084;18.206;2022-11-15T01:24:59;6.80;99.90
23395;DHT22;11870;53.084;18.206;2022-11-15T01:27:25;6.70;99.90
23395;DHT22;11870;53.084;18.206;2022-11-15T01:29:51;6.80;99.90
23395;DHT22;11870;53.084;18.206;2022-11-15T01:32:17;6.80;99.90
23395;DHT22;11870;53.084;18.206;2022-11-15T01:34:43;6.90;99.90
23395;DHT22;11870;53.084;18.206;2022-11-15T01:37:09;6.90;99.90
23395;DHT22;11870;53.084;18.206;2022-11-15T01:39:35;6.90;99.90
23395;DHT22;11870;53.084;18.206;2022-11-15T01:42:01;6.80;99.90
23395;DHT22;11870;53.084;18.206;2022-11-15T01:47:02;6.70;99.90
23395;DHT22;11870;53.084;18.206;2022-11-15T01:49:33;6.70;99.90
23395;DHT22;11870;53.084;18.206;2022-11-15T01:52:02;6.60;99.90
23395;DHT22;11870;53.084;18.206;2022-11-15T01:54:28;6.50;99.90
23395;DHT22;11870;53.084;18.206;2022-11-15T01:57:06;6.60;99.90
23395;DHT22;11870;53.084;18.206;2022-11-15T01:59:32;6.50;99.90
23395;DHT22;11870;53.084;18.206;2022-11-15T02:01:59;6.50;99.90
23395;DHT22;11870;53.084;18.206;2022-11-15T02:04:27;6.40;99.90
23395;DHT22;11870;53.084;18.206;2022-11-15T02:06:54;6.30;99.90
23395;DHT22;11870;53.084;18.206;2022-11-15T02:09:20;6.20;99.90
23395;DHT22;11870;53.084;18.206;2022-11-15T02:11:47;6.10;99.90
23395;DHT22;11870;53.084;18.206;2022-11-15T02:14:16;6.10;99.90
23395;DHT22;11870;53.084;18.206;2022-11-15T02:28:06;6.30;99.90
23395;DHT22;11870;53.084;18.206;2022-11-15T02:30:42;6.20;99.90
23395;DHT22;11870;53.084;18.206;2022-11-15T02:36:02;6.10;99.90
23395;DHT22;11870;53.084;18.206;2022-11-15T02:38:39;6.10;99.90
23395;DHT22;11870;53.084;18.206;2022-11-15T02:41:16;6.20;99.90
23395;DHT22;11870;53.084;18.206;2022-11-15T02:43:56;6.20;99.90
23395;DHT22;11870;53.084;18.206;2022-11-15T02:49:11;6.30;99.90
23395;DHT22;11870;53.084;18.206;2022-11-15T02:51:38;6.40;99.90
23395;DHT22;11870;53.084;18.206;2022-11-15T02:54:05;6.50;99.90
23395;DHT22;11870;53.084;18.206;2022-11-15T02:56:31;6.50;99.90
23395;DHT22;11870;53.084;18.206;2022-11-15T03:02:49;6.40;99.90
23395;DHT22;11870;53.084;18.206;2022-11-15T03:07:43;6.40;99.90
23395;DHT22;11870;53.084;18.206;2022-11-15T03:10:26;6.40;99.90
23395;DHT22;11870;53.084;18.206;2022-11-15T03:13:07;6.40;99.90
23395;DHT22;11870;53.084;18.206;2022-11-15T03:15:47;6.40;99.90
23395;DHT22;11870;53.084;18.206;2022-11-15T03:18:29;6.40;99.90
23395;DHT22;11870;53.084;18.206;2022-11-15T03:20:59;6.30;99.90
23395;DHT22;11870;53.084;18.206;2022-11-15T03:23:28;6.30;99.90
23395;DHT22;11870;53.084;18.206;2022-11-15T03:25:56;6.30;99.90
23395;DHT22;11870;53.084;18.206;2022-11-15T03:28:27;6.30;99.90
23395;DHT22;11870;53.084;18.206;2022-11-15T03:30:55;6.20;99.90
23395;DHT22;11870;53.084;18.206;2022-11-15T03:33:22;6.20;99.90
23395;DHT22;11870;53.084;18.206;2022-11-15T03:35:48;6.20;99.90
23395;DHT22;11870;53.084;18.206;2022-11-15T03:38:24;6.20;99.90
23395;DHT22;11870;53.084;18.206;2022-11-15T03:41:04;6.30;99.90
23395;DHT22;11870;53.084;18.206;2022-11-15T03:43:39;6.40;99.90
23395;DHT22;11870;53.084;18.206;2022-11-15T03:46:16;6.30;99.90
23395;DHT22;11870;53.084;18.206;2022-11-15T03:48:52;6.30;99.90
23395;DHT22;11870;53.084;18.206;2022-11-15T03:51:20;6.30;99.90
23395;DHT22;11870;53.084;18.206;2022-11-15T03:53:46;6.30;99.90
23395;DHT22;11870;53.084;18.206;2022-11-15T03:56:12;6.30;99.90
23395;DHT22;11870;53.084;18.206;2022-11-15T03:58:38;6.40;99.90
23395;DHT22;11870;53.084;18.206;2022-11-15T04:01:04;6.30;99.90
23395;DHT22;11870;53.084;18.206;2022-11-15T04:03:29;6.30;99.90
23395;DHT22;11870;53.084;18.206;2022-11-15T04:05:56;6.40;99.90
23395;DHT22;11870;53.084;18.206;2022-11-15T04:08:21;6.40;99.90
23395;DHT22;11870;53.084;18.206;2022-11-15T04:10:49;6.40;99.90
23395;DHT22;11870;53.084;18.206;2022-11-15T04:13:15;6.40;99.90
23395;DHT22;11870;53.084;18.206;2022-11-15T04:15:41;6.50;99.90
23395;DHT22;11870;53.084;18.206;2022-11-15T04:18:06;6.40;99.90
23395;DHT22;11870;53.084;18.206;2022-11-15T04:20:32;6.40;99.90
23395;DHT22;11870;53.084;18.206;2022-11-15T04:23:19;6.40;99.90
23395;DHT22;11870;53.084;18.206;2022-11-15T04:26:12;6.30;99.90
23395;DHT22;11870;53.084;18.206;2022-11-15T04:28:40;6.20;99.90
23395;DHT22;11870;53.084;18.206;2022-11-15T04:31:26;6.20;99.90
23395;DHT22;11870;53.084;18.206;2022-11-15T04:33:52;6.30;99.90
23395;DHT22;11870;53.084;18.206;2022-11-15T04:36:19;6.40;99.90
23395;DHT22;11870;53.084;18.206;2022-11-15T04:39:06;6.50;99.90
23395;DHT22;11870;53.084;18.206;2022-11-15T04:41:32;6.30;99.90
23395;DHT22;11870;53.084;18.206;2022-11-15T04:43:57;6.30;99.90
23395;DHT22;11870;53.084;18.206;2022-11-15T04:46:24;6.20;99.90
23395;DHT22;11870;53.084;18.206;2022-11-15T04:48:51;6.20;99.90
23395;DHT22;11870;53.084;18.206;2022-11-15T04:51:17;6.10;99.90
23395;DHT22;11870;53.084;18.206;2022-11-15T04:53:43;6.20;99.90
23395;DHT22;11870;53.084;18.206;2022-11-15T04:56:09;7.10;99.90
23395;DHT22;11870;53.084;18.206;2022-11-15T04:58:35;6.20;99.90
23395;DHT22;11870;53.084;18.206;2022-11-15T05:01:14;6.20;99.90
23395;DHT22;11870;53.084;18.206;2022-11-15T05:03:43;6.20;99.90
23395;DHT22;11870;53.084;18.206;2022-11-15T05:06:28;6.10;99.90
23395;DHT22;11870;53.084;18.206;2022-11-15T05:08:54;6.10;99.90
23395;DHT22;11870;53.084;18.206;2022-11-15T05:11:21;6.10;99.90
23395;DHT22;11870;53.084;18.206;2022-11-15T05:13:46;6.10;99.90
23395;DHT22;11870;53.084;18.206;2022-11-15T05:16:13;6.10;99.90
23395;DHT22;11870;53.084;18.206;2022-11-15T05:18:38;6.10;99.90
23395;DHT22;11870;53.084;18.206;2022-11-15T05:21:09;6.20;99.90
23395;DHT22;11870;53.084;18.206;2022-11-15T05:23:36;6.30;99.90
23395;DHT22;11870;53.084;18.206;2022-11-15T05:26:04;6.30;99.90
23395;DHT22;11870;53.084;18.206;2022-11-15T05:28:30;6.40;99.90
23395;DHT22;11870;53.084;18.206;2022-11-15T05:31:04;6.40;99.90
23395;DHT22;11870;53.084;18.206;2022-11-15T05:33:30;6.40;99.90
23395;DHT22;11870;53.084;18.206;2022-11-15T05:38:53;6.30;99.90
23395;DHT22;11870;53.084;18.206;2022-11-15T05:41:25;6.40;99.90
23395;DHT22;11870;53.084;18.206;2022-11-15T05:43:52;6.50;99.90
23395;DHT22;11870;53.084;18.206;2022-11-15T05:46:18;6.40;99.90
23395;DHT22;11870;53.084;18.206;2022-11-15T05:48:48;6.40;99.90
23395;DHT22;11870;53.084;18.206;2022-11-15T05:51:17;6.40;99.90
23395;DHT22;11870;53.084;18.206;2022-11-15T05:53:45;6.30;99.90
23395;DHT22;11870;53.084;18.206;2022-11-15T05:56:12;6.30;99.90
23395;DHT22;11870;53.084;18.206;2022-11-15T05:58:38;6.20;99.90
23395;DHT22;11870;53.084;18.206;2022-11-15T06:01:04;6.20;99.90
23395;DHT22;11870;53.084;18.206;2022-11-15T06:03:30;6.20;99.90
23395;DHT22;11870;53.084;18.206;2022-11-15T06:05:56;6.20;99.90
23395;DHT22;11870;53.084;18.206;2022-11-15T06:08:22;6.30;99.90
23395;DHT22;11870;53.084;18.206;2022-11-15T06:10:48;6.30;99.90
23395;DHT22;11870;53.084;18.206;2022-11-15T06:13:14;6.30;99.90
23395;DHT22;11870;53.084;18.206;2022-11-15T06:15:40;6.30;99.90
23395;DHT22;11870;53.084;18.206;2022-11-15T06:18:06;6.30;99.90
23395;DHT22;11870;53.084;18.206;2022-11-15T06:20:32;6.30;99.90
23395;DHT22;11870;53.084;18.206;2022-11-15T06:23:03;6.30;99.90
23395;DHT22;11870;53.084;18.206;2022-11-15T06:25:30;6.30;99.90
23395;DHT22;11870;53.084;18.206;2022-11-15T06:27:58;6.40;99.90
23395;DHT22;11870;53.084;18.206;2022-11-15T06:30:25;6.30;99.90
23395;DHT22;11870;53.084;18.206;2022-11-15T06:32:57;6.30;99.90
23395;DHT22;11870;53.084;18.206;2022-11-15T06:35:24;6.40;99.90
23395;DHT22;11870;53.084;18.206;2022-11-15T06:37:49;6.50;99.90
23395;DHT22;11870;53.084;18.206;2022-11-15T06:40:15;6.50;99.90
23395;DHT22;11870;53.084;18.206;2022-11-15T06:42:41;6.40;99.90
23395;DHT22;11870;53.084;18.206;2022-11-15T06:45:07;6.40;99.90
23395;DHT22;11870;53.084;18.206;2022-11-15T06:47:33;6.40;99.90
23395;DHT22;11870;53.084;18.206;2022-11-15T06:49:59;6.40;99.90
23395;DHT22;11870;53.084;18.206;2022-11-15T06:52:25;6.40;99.90
23395;DHT22;11870;53.084;18.206;2022-11-15T06:54:51;6.40;99.90
23395;DHT22;11870;53.084;18.206;2022-11-15T06:57:17;6.50;99.90
23395;DHT22;11870;53.084;18.206;2022-11-15T06:59:43;7.10;99.90
23395;DHT22;11870;53.084;18.206;2022-11-15T07:02:13;6.40;99.90
23395;DHT22;11870;53.084;18.206;2022-11-15T07:04:39;6.50;99.90
23395;DHT22;11870;53.084;18.206;2022-11-15T07:07:05;6.50;99.90
23395;DHT22;11870;53.084;18.206;2022-11-15T07:09:31;6.60;99.90
23395;DHT22;11870;53.084;18.206;2022-11-15T07:11:57;6.60;99.90
23395;DHT22;11870;53.084;18.206;2022-11-15T07:14:23;6.70;99.90
23395;DHT22;11870;53.084;18.206;2022-11-15T07:16:48;6.70;99.90
23395;DHT22;11870;53.084;18.206;2022-11-15T07:19:14;6.70;99.90
23395;DHT22;11870;53.084;18.206;2022-11-15T07:21:40;6.60;99.90
23395;DHT22;11870;53.084;18.206;2022-11-15T07:24:06;6.60;99.90
23395;DHT22;11870;53.084;18.206;2022-11-15T07:26:32;6.60;99.90
23395;DHT22;11870;53.084;18.206;2022-11-15T07:28:58;6.60;99.90
23395;DHT22;11870;53.084;18.206;2022-11-15T07:31:24;6.60;99.90
23395;DHT22;11870;53.084;18.206;2022-11-15T07:33:51;6.70;99.90
23395;DHT22;11870;53.084;18.206;2022-11-15T07:36:17;6.80;99.90
23395;DHT22;11870;53.084;18.206;2022-11-15T07:38:43;6.80;99.90
23395;DHT22;11870;53.084;18.206;2022-11-15T07:41:09;6.90;99.90
23395;DHT22;11870;53.084;18.206;2022-11-15T07:43:35;6.90;99.90
23395;DHT22;11870;53.084;18.206;2022-11-15T07:46:08;7.00;99.90
23395;DHT22;11870;53.084;18.206;2022-11-15T07:48:35;6.80;99.90
23395;DHT22;11870;53.084;18.206;2022-11-15T07:51:02;6.80;99.90
23395;DHT22;11870;53.084;18.206;2022-11-15T07:53:28;6.90;99.90
23395;DHT22;11870;53.084;18.206;2022-11-15T07:55:54;6.90;99.90
23395;DHT22;11870;53.084;18.206;2022-11-15T07:58:20;6.90;99.90
23395;DHT22;11870;53.084;18.206;2022-11-15T08:00:46;7.00;99.90
23395;DHT22;11870;53.084;18.206;2022-11-15T08:08:50;7.00;99.90
23395;DHT22;11870;53.084;18.206;2022-11-15T08:11:16;7.00;99.90
23395;DHT22;11870;53.084;18.206;2022-11-15T08:13:42;7.10;99.90
23395;DHT22;11870;53.084;18.206;2022-11-15T08:16:08;7.10;99.90
23395;DHT22;11870;53.084;18.206;2022-11-15T08:18:34;7.10;99.90
23395;DHT22;11870;53.084;18.206;2022-11-15T08:21:01;7.20;99.90
23395;DHT22;11870;53.084;18.206;2022-11-15T08:23:27;7.20;99.90
23395;DHT22;11870;53.084;18.206;2022-11-15T08:25:59;7.20;99.90
23395;DHT22;11870;53.084;18.206;2022-11-15T08:28:25;7.20;99.90
23395;DHT22;11870;53.084;18.206;2022-11-15T08:30:51;7.30;99.90
23395;DHT22;11870;53.084;18.206;2022-11-15T08:33:17;7.30;99.90
23395;DHT22;11870;53.084;18.206;2022-11-15T08:35:43;7.40;99.90
23395;DHT22;11870;53.084;18.206;2022-11-15T08:38:09;7.30;99.90
23395;DHT22;11870;53.084;18.206;2022-11-15T08:40:36;7.30;99.90
23395;DHT22;11870;53.084;18.206;2022-11-15T08:43:02;7.40;99.90
23395;DHT22;11870;53.084;18.206;2022-11-15T08:45:29;7.40;99.90
23395;DHT22;11870;53.084;18.206;2022-11-15T08:47:55;7.50;99.90
23395;DHT22;11870;53.084;18.206;2022-11-15T08:50:22;7.60;99.90
23395;DHT22;11870;53.084;18.206;2022-11-15T08:52:47;7.70;99.90
23395;DHT22;11870;53.084;18.206;2022-11-15T08:55:14;7.70;99.90
23395;DHT22;11870;53.084;18.206;2022-11-15T08:57:40;7.80;99.90
23395;DHT22;11870;53.084;18.206;2022-11-15T09:00:06;7.90;99.90
23395;DHT22;11870;53.084;18.206;2022-11-15T09:02:32;8.00;99.90
23395;DHT22;11870;53.084;18.206;2022-11-15T09:04:58;8.00;99.90
23395;DHT22;11870;53.084;18.206;2022-11-15T09:07:24;8.00;99.90
23395;DHT22;11870;53.084;18.206;2022-11-15T09:09:50;8.00;99.90
23395;DHT22;11870;53.084;18.206;2022-11-15T09:12:16;8.00;99.90
23395;DHT22;11870;53.084;18.206;2022-11-15T09:14:42;7.90;99.90
23395;DHT22;11870;53.084;18.206;2022-11-15T09:17:08;7.90;99.90
23395;DHT22;11870;53.084;18.206;2022-11-15T09:19:35;7.90;99.90
23395;DHT22;11870;53.084;18.206;2022-11-15T09:22:01;7.90;99.90
23395;DHT22;11870;53.084;18.206;2022-11-15T09:24:27;7.90;99.90
23395;DHT22;11870;53.084;18.206;2022-11-15T09:26:52;7.70;99.90
23395;DHT22;11870;53.084;18.206;2022-11-15T09:29:18;7.80;99.90
23395;DHT22;11870;53.084;18.206;2022-11-15T09:31:44;7.80;99.90
23395;DHT22;11870;53.084;18.206;2022-11-15T09:34:11;7.90;99.90
23395;DHT22;11870;53.084;18.206;2022-11-15T09:36:37;7.90;99.90
23395;DHT22;11870;53.084;18.206;2022-11-15T09:39:03;7.90;99.90
23395;DHT22;11870;53.084;18.206;2022-11-15T09:47:01;8.10;99.90
23395;DHT22;11870;53.084;18.206;2022-11-15T09:49:31;8.10;99.90
23395;DHT22;11870;53.084;18.206;2022-11-15T09:51:58;8.10;99.90
23395;DHT22;11870;53.084;18.206;2022-11-15T09:54:47;8.10;99.90
23395;DHT22;11870;53.084;18.206;2022-11-15T10:02:23;8.20;99.90
23395;DHT22;11870;53.084;18.206;2022-11-15T10:04:57;8.20;99.90
23395;DHT22;11870;53.084;18.206;2022-11-15T10:12:51;8.20;99.90
23395;DHT22;11870;53.084;18.206;2022-11-15T10:15:18;8.30;99.90
23395;DHT22;11870;53.084;18.206;2022-11-15T10:32:55;8.10;99.90
23395;DHT22;11870;53.084;18.206;2022-11-15T10:35:30;8.20;99.90
23395;DHT22;11870;53.084;18.206;2022-11-15T10:38:10;8.20;99.90
23395;DHT22;11870;53.084;18.206;2022-11-15T10:40:39;8.20;99.90
23395;DHT22;11870;53.084;18.206;2022-11-15T10:45:35;8.40;99.90
23395;DHT22;11870;53.084;18.206;2022-11-15T10:50:42;8.50;99.90
23395;DHT22;11870;53.084;18.206;2022-11-15T10:53:23;8.50;99.90
23395;DHT22;11870;53.084;18.206;2022-11-15T10:55:53;8.60;99.90
23395;DHT22;11870;53.084;18.206;2022-11-15T10:58:26;8.60;99.90
23395;DHT22;11870;53.084;18.206;2022-11-15T11:00:55;8.80;99.90
23395;DHT22;11870;53.084;18.206;2022-11-15T11:03:28;8.70;99.90
23395;DHT22;11870;53.084;18.206;2022-11-15T11:06:17;8.70;99.90
23395;DHT22;11870;53.084;18.206;2022-11-15T11:11:20;8.60;99.90
23395;DHT22;11870;53.084;18.206;2022-11-15T11:13:46;8.70;99.90
23395;DHT22;11870;53.084;18.206;2022-11-15T11:18:48;8.50;99.90
23395;DHT22;11870;53.084;18.206;2022-11-15T11:21:23;8.50;99.90
23395;DHT22;11870;53.084;18.206;2022-11-15T11:23:59;8.50;99.90
23395;DHT22;11870;53.084;18.206;2022-11-15T11:26:42;8.50;99.90
23395;DHT22;11870;53.084;18.206;2022-11-15T11:32:39;8.40;99.90
23395;DHT22;11870;53.084;18.206;2022-11-15T11:35:32;8.40;99.90
23395;DHT22;11870;53.084;18.206;2022-11-15T11:38:22;8.70;99.90
23395;DHT22;11870;53.084;18.206;2022-11-15T11:48:58;8.30;99.90
23395;DHT22;11870;53.084;18.206;2022-11-15T11:54:57;8.30;99.90
23395;DHT22;11870;53.084;18.206;2022-11-15T11:57:54;8.20;99.90
23395;DHT22;11870;53.084;18.206;2022-11-15T12:00:27;8.20;99.90
23395;DHT22;11870;53.084;18.206;2022-11-15T12:06:41;8.10;99.90
23395;DHT22;11870;53.084;18.206;2022-11-15T12:17:23;8.10;99.90
23395;DHT22;11870;53.084;18.206;2022-11-15T12:19:49;8.10;99.90
23395;DHT22;11870;53.084;18.206;2022-11-15T12:32:55;8.20;99.90
23395;DHT22;11870;53.084;18.206;2022-11-15T12:35:36;8.20;99.90
23395;DHT22;11870;53.084;18.206;2022-11-15T12:38:04;8.20;99.90
23395;DHT22;11870;53.084;18.206;2022-11-15T12:40:35;8.40;99.90
23395;DHT22;11870;53.084;18.206;2022-11-15T13:02:36;8.40;99.90
23395;DHT22;11870;53.084;18.206;2022-11-15T13:36:29;8.00;99.90
23395;DHT22;11870;53.084;18.206;2022-11-15T13:43:34;8.00;99.90
23395;DHT22;11870;53.084;18.206;2022-11-15T13:49:50;7.90;99.90
23395;DHT22;11870;53.084;18.206;2022-11-15T13:52:16;7.90;99.90
23395;DHT22;11870;53.084;18.206;2022-11-15T14:05:26;7.70;99.90
23395;DHT22;11870;53.084;18.206;2022-11-15T14:08:12;7.60;99.90
23395;DHT22;11870;53.084;18.206;2022-11-15T14:10:39;7.50;99.90
23395;DHT22;11870;53.084;18.206;2022-11-15T14:13:27;7.50;99.90
23395;DHT22;11870;53.084;18.206;2022-11-15T14:15:53;7.40;99.90
23395;DHT22;11870;53.084;18.206;2022-11-15T14:18:40;7.40;99.90
23395;DHT22;11870;53.084;18.206;2022-11-15T14:21:07;7.40;99.90
23395;DHT22;11870;53.084;18.206;2022-11-15T14:23:34;7.30;99.90
23395;DHT22;11870;53.084;18.206;2022-11-15T14:26:00;7.20;99.90
23395;DHT22;11870;53.084;18.206;2022-11-15T14:30:54;7.20;99.90
23395;DHT22;11870;53.084;18.206;2022-11-15T14:36:13;7.20;99.90
23395;DHT22;11870;53.084;18.206;2022-11-15T14:38:40;7.20;99.90
23395;DHT22;11870;53.084;18.206;2022-11-15T14:41:21;7.00;99.90
23395;DHT22;11870;53.084;18.206;2022-11-15T14:43:48;7.00;99.90
23395;DHT22;11870;53.084;18.206;2022-11-15T14:46:14;7.00;99.90
23395;DHT22;11870;53.084;18.206;2022-11-15T14:48:40;7.00;99.90
23395;DHT22;11870;53.084;18.206;2022-11-15T14:51:14;7.50;99.90
23395;DHT22;11870;53.084;18.206;2022-11-15T14:53:42;6.90;99.90
23395;DHT22;11870;53.084;18.206;2022-11-15T14:56:08;6.90;99.90
23395;DHT22;11870;53.084;18.206;2022-11-15T14:58:35;6.80;99.90
23395;DHT22;11870;53.084;18.206;2022-11-15T15:01:25;6.90;99.90
23395;DHT22;11870;53.084;18.206;2022-11-15T15:03:52;6.80;99.90
23395;DHT22;11870;53.084;18.206;2022-11-15T15:06:28;6.80;99.90
23395;DHT22;11870;53.084;18.206;2022-11-15T15:08:56;6.80;99.90
23395;DHT22;11870;53.084;18.206;2022-11-15T15:11:27;6.80;99.90
23395;DHT22;11870;53.084;18.206;2022-11-15T15:13:57;6.90;99.90
23395;DHT22;11870;53.084;18.206;2022-11-15T15:16:26;6.90;99.90
23395;DHT22;11870;53.084;18.206;2022-11-15T15:18:53;6.80;99.90
23395;DHT22;11870;53.084;18.206;2022-11-15T15:21:26;6.90;99.90
23395;DHT22;11870;53.084;18.206;2022-11-15T15:23:54;6.80;99.90
23395;DHT22;11870;53.084;18.206;2022-11-15T15:26:20;6.90;99.90
23395;DHT22;11870;53.084;18.206;2022-11-15T15:28:46;6.80;99.90
23395;DHT22;11870;53.084;18.206;2022-11-15T15:31:14;6.70;99.90
23395;DHT22;11870;53.084;18.206;2022-11-15T15:33:40;6.60;99.90
23395;DHT22;11870;53.084;18.206;2022-11-15T15:36:18;6.60;99.90
23395;DHT22;11870;53.084;18.206;2022-11-15T15:38:44;6.70;99.90
23395;DHT22;11870;53.084;18.206;2022-11-15T15:41:13;6.70;99.90
23395;DHT22;11870;53.084;18.206;2022-11-15T15:43:39;6.60;99.90
23395;DHT22;11870;53.084;18.206;2022-11-15T15:46:14;6.60;99.90
23395;DHT22;11870;53.084;18.206;2022-11-15T15:48:41;6.50;99.90
23395;DHT22;11870;53.084;18.206;2022-11-15T15:51:06;6.50;99.90
23395;DHT22;11870;53.084;18.206;2022-11-15T15:53:34;6.50;99.90
23395;DHT22;11870;53.084;18.206;2022-11-15T15:56:00;6.90;99.90
23395;DHT22;11870;53.084;18.206;2022-11-15T15:58:26;6.60;99.90
23395;DHT22;11870;53.084;18.206;2022-11-15T16:04:33;6.50;99.90
23395;DHT22;11870;53.084;18.206;2022-11-15T16:11:05;6.50;99.90
23395;DHT22;11870;53.084;18.206;2022-11-15T16:17:20;6.60;99.90
23395;DHT22;11870;53.084;18.206;2022-11-15T16:19:47;6.50;99.90
23395;DHT22;11870;53.084;18.206;2022-11-15T16:22:12;6.50;99.90
23395;DHT22;11870;53.084;18.206;2022-11-15T16:24:38;6.50;99.90
23395;DHT22;11870;53.084;18.206;2022-11-15T16:27:04;6.50;99.90
23395;DHT22;11870;53.084;18.206;2022-11-15T16:29:30;6.50;99.90
23395;DHT22;11870;53.084;18.206;2022-11-15T16:31:56;6.60;99.90
23395;DHT22;11870;53.084;18.206;2022-11-15T16:34:22;6.60;99.90
23395;DHT22;11870;53.084;18.206;2022-11-15T16:36:50;6.60;99.90
23395;DHT22;11870;53.084;18.206;2022-11-15T16:39:16;6.60;99.90
23395;DHT22;11870;53.084;18.206;2022-11-15T16:41:44;6.60;99.90
23395;DHT22;11870;53.084;18.206;2022-11-15T16:44:13;6.60;99.90
23395;DHT22;11870;53.084;18.206;2022-11-15T16:46:42;6.60;99.90
23395;DHT22;11870;53.084;18.206;2022-11-15T16:49:15;6.60;99.90
23395;DHT22;11870;53.084;18.206;2022-11-15T16:51:41;6.50;99.90
23395;DHT22;11870;53.084;18.206;2022-11-15T16:54:07;6.60;99.90
23395;DHT22;11870;53.084;18.206;2022-11-15T16:56:33;6.60;99.90
23395;DHT22;11870;53.084;18.206;2022-11-15T16:59:00;6.50;99.90
23395;DHT22;11870;53.084;18.206;2022-11-15T17:01:28;6.50;99.90
23395;DHT22;11870;53.084;18.206;2022-11-15T17:03:55;6.60;99.90
23395;DHT22;11870;53.084;18.206;2022-11-15T17:06:21;6.70;99.90
23395;DHT22;11870;53.084;18.206;2022-11-15T17:08:48;6.70;99.90
23395;DHT22;11870;53.084;18.206;2022-11-15T17:11:17;6.70;99.90
23395;DHT22;11870;53.084;18.206;2022-11-15T17:13:44;6.70;99.90
23395;DHT22;11870;53.084;18.206;2022-11-15T17:16:14;6.70;99.90
23395;DHT22;11870;53.084;18.206;2022-11-15T17:18:43;6.70;99.90
23395;DHT22;11870;53.084;18.206;2022-11-15T17:21:14;6.70;99.90
23395;DHT22;11870;53.084;18.206;2022-11-15T17:23:41;6.60;99.90
23395;DHT22;11870;53.084;18.206;2022-11-15T17:26:09;6.70;99.90
23395;DHT22;11870;53.084;18.206;2022-11-15T17:28:37;6.70;99.90
23395;DHT22;11870;53.084;18.206;2022-11-15T17:31:09;6.70;99.90
23395;DHT22;11870;53.084;18.206;2022-11-15T17:33:37;6.70;99.90
23395;DHT22;11870;53.084;18.206;2022-11-15T17:36:31;6.80;99.90
23395;DHT22;11870;53.084;18.206;2022-11-15T17:38:57;6.80;99.90
23395;DHT22;11870;53.084;18.206;2022-11-15T17:41:23;6.80;99.90
23395;DHT22;11870;53.084;18.206;2022-11-15T17:43:49;6.70;99.90
23395;DHT22;11870;53.084;18.206;2022-11-15T17:46:19;6.70;99.90
23395;DHT22;11870;53.084;18.206;2022-11-15T17:48:47;6.60;99.90
23395;DHT22;11870;53.084;18.206;2022-11-15T17:51:15;6.60;99.90
23395;DHT22;11870;53.084;18.206;2022-11-15T17:53:44;7.30;99.90
23395;DHT22;11870;53.084;18.206;2022-11-15T17:56:15;6.70;99.90
23395;DHT22;11870;53.084;18.206;2022-11-15T17:58:49;6.70;99.90
23395;DHT22;11870;53.084;18.206;2022-11-15T18:04:57;6.70;99.90
23395;DHT22;11870;53.084;18.206;2022-11-15T18:11:18;6.60;99.90
23395;DHT22;11870;53.084;18.206;2022-11-15T18:13:47;6.70;99.90
23395;DHT22;11870;53.084;18.206;2022-11-15T18:16:15;6.70;99.90
23395;DHT22;11870;53.084;18.206;2022-11-15T18:18:42;6.60;99.90
23395;DHT22;11870;53.084;18.206;2022-11-15T18:21:16;6.60;99.90
23395;DHT22;11870;53.084;18.206;2022-11-15T18:23:43;6.60;99.90
23395;DHT22;11870;53.084;18.206;2022-11-15T18:26:14;6.60;99.90
23395;DHT22;11870;53.084;18.206;2022-11-15T18:28:44;6.60;99.90
23395;DHT22;11870;53.084;18.206;2022-11-15T18:31:19;6.60;99.90
23395;DHT22;11870;53.084;18.206;2022-11-15T18:37:48;6.70;99.90
23395;DHT22;11870;53.084;18.206;2022-11-15T18:40:14;6.70;99.90
23395;DHT22;11870;53.084;18.206;2022-11-15T18:42:40;6.70;99.90
23395;DHT22;11870;53.084;18.206;2022-11-15T18:45:06;6.70;99.90
23395;DHT22;11870;53.084;18.206;2022-11-15T18:47:32;6.70;99.90
23395;DHT22;11870;53.084;18.206;2022-11-15T18:49:58;6.70;99.90
23395;DHT22;11870;53.084;18.206;2022-11-15T18:52:24;6.60;99.90
23395;DHT22;11870;53.084;18.206;2022-11-15T18:54:50;6.60;99.90
23395;DHT22;11870;53.084;18.206;2022-11-15T18:57:16;6.70;99.90
23395;DHT22;11870;53.084;18.206;2022-11-15T19:03:24;6.80;99.90
23395;DHT22;11870;53.084;18.206;2022-11-15T19:09:32;6.80;99.90
23395;DHT22;11870;53.084;18.206;2022-11-15T19:15:44;6.70;99.90
23395;DHT22;11870;53.084;18.206;2022-11-15T19:21:52;6.80;99.90
23395;DHT22;11870;53.084;18.206;2022-11-15T19:28:19;6.70;99.90
23395;DHT22;11870;53.084;18.206;2022-11-15T19:30:45;6.70;99.90